Time;durP1;ratioP1;P1;durP2;ratioP2;P2;SDS_P1;SDS_P2;PMS_P1;PMS_P2;Temp;Humidity;BMP_temperature;BMP_pressure;BME280_temperature;BME280_humidity;BME280_pressure;Samples;Min_cycle;Max_cycle;Signal;HPM_P1;HPM_P2
2024/01/23 00:01:09;;;;;;;15.15;2.72;;;8.50;99.90;;;;;;5092258;28;20252;-54
2024/01/23 00:03:35;;;;;;;14.85;3.47;;;8.40;99.90;;;;;;5092094;28;20208;-55
2024/01/23 00:06:01;;;;;;;17.08;3.38;;;8.40;99.90;;;;;;5092439;28;20284;-57
2024/01/23 00:08:27;;;;;;;17.05;3.17;;;8.40;99.90;;;;;;5092373;28;20594;-56
2024/01/23 00:10:52;;;;;;;24.02;3.75;;;8.40;99.90;;;;;;5091298;28;20169;-56
2024/01/23 00:13:18;;;;;;;12.88;3.80;;;8.40;99.90;;;;;;5092367;28;20175;-57
2024/01/23 00:15:44;;;;;;;14.30;2.97;;;8.40;99.90;;;;;;5090771;28;20203;-52
2024/01/23 00:18:09;;;;;;;16.80;3.78;;;8.40;99.90;;;;;;5092547;28;20226;-57
2024/01/23 00:20:35;;;;;;;7.47;2.95;;;8.40;99.90;;;;;;5092206;28;20162;-56
2024/01/23 00:23:00;;;;;;;23.48;5.00;;;8.40;99.90;;;;;;5091821;28;20212;-57
2024/01/23 00:25:26;;;;;;;14.38;3.92;;;8.50;99.90;;;;;;5091914;28;20166;-57
2024/01/23 00:27:51;;;;;;;12.43;3.03;;;8.50;99.90;;;;;;5091869;28;20177;-57
2024/01/23 00:30:17;;;;;;;8.85;2.55;;;8.50;99.90;;;;;;5092054;28;20165;-55
2024/01/23 00:32:43;;;;;;;13.55;3.22;;;8.50;99.90;;;;;;5092259;28;20211;-54
2024/01/23 00:35:08;;;;;;;21.20;3.45;;;8.40;99.90;;;;;;5091677;28;20165;-55
2024/01/23 00:37:34;;;;;;;12.70;4.25;;;8.50;99.90;;;;;;5091647;28;20165;-55
2024/01/23 00:40:01;;;;;;;15.55;3.15;;;8.50;99.90;;;;;;5091591;28;20166;-55
2024/01/23 00:42:26;;;;;;;18.83;3.40;;;8.40;99.90;;;;;;5091402;28;20205;-54
2024/01/23 00:44:53;;;;;;;17.50;3.25;;;8.40;99.90;;;;;;5091572;28;20169;-57
2024/01/23 00:47:19;;;;;;;24.83;4.55;;;8.40;99.90;;;;;;5091515;28;20165;-56
2024/01/23 00:49:45;;;;;;;18.15;3.28;;;8.40;99.90;;;;;;5091342;28;20255;-51
2024/01/23 00:52:11;;;;;;;16.00;3.05;;;8.30;99.90;;;;;;5091880;28;20197;-57
2024/01/23 00:54:37;;;;;;;18.52;3.15;;;8.30;99.90;;;;;;5091435;28;20562;-58
2024/01/23 00:57:05;;;;;;;16.25;3.45;;;8.30;99.90;;;;;;5091339;28;20259;-57
2024/01/23 00:59:31;;;;;;;22.23;3.88;;;8.30;99.90;;;;;;5091329;28;20621;-57
2024/01/23 01:01:57;;;;;;;12.85;2.63;;;8.30;99.90;;;;;;5091282;28;20214;-55
2024/01/23 01:04:22;;;;;;;16.60;3.83;;;8.20;99.90;;;;;;5091354;28;20571;-57
2024/01/23 01:06:48;;;;;;;15.65;3.13;;;8.30;99.90;;;;;;5091365;28;20161;-57
2024/01/23 01:09:13;;;;;;;26.48;3.72;;;8.30;99.90;;;;;;5091455;28;20173;-57
2024/01/23 01:11:39;;;;;;;23.00;4.50;;;8.20;99.90;;;;;;5091732;28;20215;-57
2024/01/23 01:14:04;;;;;;;15.05;2.95;;;8.20;99.90;;;;;;5091223;28;20226;-57
2024/01/23 01:16:30;;;;;;;19.65;3.55;;;8.20;99.90;;;;;;5091277;28;20644;-58
2024/01/23 01:18:58;;;;;;;14.75;3.78;;;8.20;99.90;;;;;;5091199;28;20206;-57
2024/01/23 01:21:23;;;;;;;26.20;3.65;;;8.10;99.90;;;;;;5093256;28;20161;-57
2024/01/23 01:23:49;;;;;;;18.00;4.30;;;8.10;99.90;;;;;;5095279;28;20211;-56
2024/01/23 01:26:14;;;;;;;17.83;3.38;;;8.10;99.90;;;;;;5095587;28;20255;-56
2024/01/23 01:28:40;;;;;;;16.67;3.28;;;8.10;99.90;;;;;;5095795;28;20259;-57
2024/01/23 01:31:05;;;;;;;15.90;4.20;;;8.10;99.90;;;;;;5095239;28;20201;-57
2024/01/23 01:33:31;;;;;;;20.33;3.85;;;8.10;99.90;;;;;;5095153;28;20173;-57
2024/01/23 01:35:57;;;;;;;15.98;4.00;;;8.00;99.90;;;;;;5095152;28;20173;-58
2024/01/23 01:38:22;;;;;;;15.77;3.63;;;8.00;99.90;;;;;;5095177;28;20169;-56
2024/01/23 01:40:48;;;;;;;17.50;3.95;;;8.00;99.90;;;;;;5095366;28;20169;-56
2024/01/23 01:43:25;;;;;;;24.05;4.03;;;7.90;99.90;;;;;;5095098;28;20232;-53
2024/01/23 01:46:11;;;;;;;22.80;5.05;;;7.90;99.90;;;;;;5095426;28;20165;-56
2024/01/23 01:48:38;;;;;;;26.33;4.97;;;7.70;99.90;;;;;;5094849;28;20171;-58
2024/01/23 01:51:04;;;;;;;22.27;4.13;;;7.60;99.90;;;;;;5095255;28;20218;-56
2024/01/23 01:53:30;;;;;;;27.02;5.72;;;7.40;99.90;;;;;;5094780;28;20180;-56
2024/01/23 01:55:56;;;;;;;15.15;3.88;;;7.40;99.90;;;;;;5094747;28;20283;-57
2024/01/23 01:58:23;;;;;;;23.33;4.88;;;7.40;99.90;;;;;;5094755;28;20519;-57
2024/01/23 02:00:50;;;;;;;16.95;4.53;;;7.40;99.90;;;;;;5094631;28;20641;-56
2024/01/23 02:03:17;;;;;;;15.25;3.10;;;7.40;99.90;;;;;;5094762;28;20213;-55
2024/01/23 02:05:43;;;;;;;20.70;3.40;;;7.40;99.90;;;;;;5095248;28;20169;-57
2024/01/23 02:08:08;;;;;;;17.95;3.65;;;7.40;99.90;;;;;;5094445;28;20248;-57
2024/01/23 02:10:34;;;;;;;15.93;2.90;;;7.30;99.90;;;;;;5094534;28;20651;-56
2024/01/23 02:12:59;;;;;;;16.25;3.53;;;7.40;99.90;;;;;;5094423;28;20249;-57
2024/01/23 02:15:25;;;;;;;15.70;2.75;;;7.40;99.90;;;;;;5094285;28;20680;-56
2024/01/23 02:17:50;;;;;;;15.93;3.15;;;7.50;99.90;;;;;;5094636;28;20756;-57
2024/01/23 02:20:16;;;;;;;18.65;2.70;;;7.50;99.90;;;;;;5094320;28;20515;-57
2024/01/23 02:22:42;;;;;;;14.80;3.15;;;7.50;99.90;;;;;;5094612;28;20204;-55
2024/01/23 02:25:07;;;;;;;7.53;2.05;;;7.60;99.90;;;;;;5094406;28;20181;-56
2024/01/23 02:27:33;;;;;;;8.65;2.35;;;7.60;99.90;;;;;;5094130;28;20157;-56
2024/01/23 02:29:58;;;;;;;10.43;2.65;;;7.60;99.90;;;;;;5094079;28;20169;-57
2024/01/23 02:32:24;;;;;;;9.90;2.28;;;7.60;99.90;;;;;;5093127;28;20173;-57
2024/01/23 02:34:50;;;;;;;11.10;2.15;;;7.60;99.90;;;;;;5094264;28;20173;-56
2024/01/23 02:37:15;;;;;;;9.65;2.10;;;7.60;99.90;;;;;;5093883;28;20244;-55
2024/01/23 02:39:41;;;;;;;17.38;3.13;;;7.60;99.90;;;;;;5094737;28;20196;-58
2024/01/23 02:42:09;;;;;;;16.92;2.58;;;7.50;99.90;;;;;;5093736;28;20169;-58
2024/01/23 02:44:34;;;;;;;12.25;2.58;;;7.50;99.90;;;;;;5094084;28;20276;-55
2024/01/23 02:47:00;;;;;;;8.45;2.67;;;7.60;99.90;;;;;;5093822;28;20197;-58
2024/01/23 02:49:25;;;;;;;9.68;2.67;;;7.60;99.90;;;;;;5093736;28;20219;-56
2024/01/23 02:51:52;;;;;;;12.70;2.70;;;7.60;99.90;;;;;;5094157;28;20170;-58
2024/01/23 02:54:18;;;;;;;9.95;2.97;;;7.60;99.90;;;;;;5093651;28;20667;-58
2024/01/23 02:56:44;;;;;;;16.13;3.35;;;7.50;99.90;;;;;;5093486;28;20217;-53
2024/01/23 02:59:10;;;;;;;17.38;2.17;;;7.60;99.90;;;;;;5094273;28;20177;-55
2024/01/23 03:01:35;;;;;;;14.65;2.88;;;7.60;99.90;;;;;;5093570;28;20165;-56
2024/01/23 03:04:01;;;;;;;17.20;2.97;;;7.60;99.90;;;;;;5093379;28;20205;-55
2024/01/23 03:06:26;;;;;;;13.63;2.15;;;7.50;99.90;;;;;;5093435;28;20531;-58
2024/01/23 03:08:52;;;;;;;17.48;2.80;;;7.50;99.90;;;;;;5093416;28;20165;-55
2024/01/23 03:11:17;;;;;;;10.18;2.80;;;7.40;99.90;;;;;;5093229;28;20522;-57
2024/01/23 03:13:43;;;;;;;14.00;2.80;;;7.40;99.90;;;;;;5093692;28;20173;-57
2024/01/23 03:16:09;;;;;;;17.98;3.80;;;7.50;99.90;;;;;;5093830;28;20161;-56
2024/01/23 03:18:34;;;;;;;8.43;2.58;;;7.50;99.90;;;;;;5093148;28;20169;-57
2024/01/23 03:21:00;;;;;;;12.93;3.10;;;7.40;99.90;;;;;;5093080;28;20197;-57
2024/01/23 03:23:25;;;;;;;10.68;3.17;;;7.50;99.90;;;;;;5092986;28;20240;-57
2024/01/23 03:25:51;;;;;;;14.77;3.28;;;7.40;99.90;;;;;;5093115;28;20161;-55
2024/01/23 03:28:16;;;;;;;17.33;3.42;;;7.40;99.90;;;;;;5092916;28;20161;-57
2024/01/23 03:30:42;;;;;;;18.30;3.72;;;7.40;99.90;;;;;;5093610;28;20172;-53
2024/01/23 03:33:07;;;;;;;16.20;3.63;;;7.30;99.90;;;;;;5092881;28;20537;-54
2024/01/23 03:35:33;;;;;;;15.43;3.03;;;7.30;99.90;;;;;;5092822;28;20170;-56
2024/01/23 03:37:58;;;;;;;16.90;3.60;;;7.30;99.90;;;;;;5092819;28;20252;-56
2024/01/23 03:40:24;;;;;;;9.25;2.70;;;7.30;99.90;;;;;;5092663;28;20208;-56
2024/01/23 03:42:50;;;;;;;16.85;3.97;;;7.20;99.90;;;;;;5092589;28;20200;-56
2024/01/23 03:45:15;;;;;;;12.75;3.67;;;7.20;99.90;;;;;;5092560;28;20571;-57
2024/01/23 03:47:41;;;;;;;12.27;3.25;;;7.20;99.90;;;;;;5093325;28;20169;-55
2024/01/23 03:50:07;;;;;;;16.58;4.50;;;7.20;99.90;;;;;;5092572;28;20538;-57
2024/01/23 03:52:32;;;;;;;19.42;3.83;;;7.20;99.90;;;;;;5092448;28;20314;-56
2024/01/23 03:54:58;;;;;;;19.67;3.40;;;7.20;99.90;;;;;;5092503;28;20197;-56
2024/01/23 03:57:23;;;;;;;14.55;3.58;;;7.20;99.90;;;;;;5092396;28;20213;-56
2024/01/23 03:59:49;;;;;;;15.50;3.40;;;7.10;99.90;;;;;;5092357;28;20172;-57
2024/01/23 04:02:15;;;;;;;17.63;3.65;;;7.10;99.90;;;;;;5090968;28;20184;-56
2024/01/23 04:04:41;;;;;;;18.30;5.07;;;7.10;99.90;;;;;;5092877;28;20180;-56
2024/01/23 04:07:06;;;;;;;8.75;3.13;;;7.10;99.90;;;;;;5092185;28;20533;-57
2024/01/23 04:09:32;;;;;;;9.15;2.38;;;7.00;99.90;;;;;;5092258;28;20170;-55
2024/01/23 04:11:57;;;;;;;24.02;3.80;;;7.00;99.90;;;;;;5090839;28;20169;-57
2024/01/23 04:14:23;;;;;;;14.23;3.20;;;6.90;99.90;;;;;;5092064;28;20241;-54
2024/01/23 04:16:48;;;;;;;13.90;3.17;;;6.90;99.90;;;;;;5092391;28;20194;-54
2024/01/23 04:19:14;;;;;;;12.15;2.80;;;6.80;99.90;;;;;;5092108;28;20168;-53
2024/01/23 04:21:40;;;;;;;14.38;3.00;;;6.80;99.90;;;;;;5092528;28;20169;-56
2024/01/23 04:24:06;;;;;;;14.98;2.90;;;6.80;99.90;;;;;;5091837;28;20618;-55
2024/01/23 04:26:32;;;;;;;11.23;3.42;;;6.80;99.90;;;;;;5091885;28;20165;-54
2024/01/23 04:28:57;;;;;;;20.95;4.00;;;6.80;99.90;;;;;;5091878;28;20165;-53
2024/01/23 04:31:24;;;;;;;15.60;4.22;;;6.70;99.90;;;;;;5091823;28;20534;-54
2024/01/23 04:33:49;;;;;;;13.85;2.85;;;6.70;99.90;;;;;;5091748;28;20165;-55
2024/01/23 04:36:16;;;;;;;17.42;2.60;;;6.70;99.90;;;;;;5091693;28;20172;-52
2024/01/23 04:38:42;;;;;;;20.33;3.80;;;6.70;99.90;;;;;;5092513;28;20185;-53
2024/01/23 04:41:08;;;;;;;19.90;4.70;;;6.60;99.90;;;;;;5090395;28;20173;-52
2024/01/23 04:43:34;;;;;;;21.95;4.20;;;6.60;99.90;;;;;;5090946;28;20244;-51
2024/01/23 04:46:00;;;;;;;22.10;4.20;;;6.60;99.90;;;;;;5091650;28;20693;-50
2024/01/23 04:48:26;;;;;;;22.13;4.85;;;6.60;99.90;;;;;;5091573;28;20184;-51
2024/01/23 04:50:51;;;;;;;15.10;3.85;;;6.60;99.90;;;;;;5091527;28;20621;-52
2024/01/23 04:53:17;;;;;;;17.90;2.53;;;6.60;99.90;;;;;;5091510;28;20158;-56
2024/01/23 04:55:43;;;;;;;16.40;4.15;;;6.60;99.90;;;;;;5091350;28;20696;-57
2024/01/23 04:58:08;;;;;;;17.83;3.28;;;6.90;99.90;;;;;;5092194;28;20540;-57
2024/01/23 05:00:34;;;;;;;20.08;3.70;;;6.60;99.90;;;;;;5091425;28;20636;-57
2024/01/23 05:03:01;;;;;;;16.05;3.35;;;6.50;99.90;;;;;;5091261;28;20201;-57
2024/01/23 05:05:27;;;;;;;10.68;3.13;;;6.50;99.90;;;;;;5091412;28;20154;-57
2024/01/23 05:07:53;;;;;;;22.88;3.75;;;6.50;99.90;;;;;;5091670;28;20310;-57
2024/01/23 05:10:18;;;;;;;18.75;3.38;;;6.50;99.90;;;;;;5091317;28;20256;-57
2024/01/23 05:12:44;;;;;;;19.38;3.78;;;6.40;99.90;;;;;;5091278;28;20169;-56
2024/01/23 05:15:09;;;;;;;19.90;3.75;;;6.40;99.90;;;;;;5091742;28;20161;-56
2024/01/23 05:17:36;;;;;;;16.70;4.22;;;6.40;99.90;;;;;;5091102;28;20169;-56
2024/01/23 05:20:04;;;;;;;22.80;2.97;;;6.30;99.90;;;;;;5091290;28;20157;-56
2024/01/23 05:22:30;;;;;;;20.63;3.70;;;6.30;99.90;;;;;;5091150;28;20697;-56
2024/01/23 05:24:55;;;;;;;14.10;3.47;;;6.30;99.90;;;;;;5091113;28;20176;-57
2024/01/23 05:27:21;;;;;;;20.83;4.18;;;6.30;99.90;;;;;;5091040;28;20161;-56
2024/01/23 05:29:46;;;;;;;12.15;2.63;;;6.30;99.90;;;;;;5090997;28;20679;-57
2024/01/23 05:32:12;;;;;;;10.27;2.55;;;6.30;99.90;;;;;;5091474;28;20529;-57
2024/01/23 05:34:38;;;;;;;12.32;2.90;;;6.30;99.90;;;;;;5091535;28;20256;-57
2024/01/23 05:37:03;;;;;;;17.70;3.25;;;6.30;99.90;;;;;;5090935;28;20212;-54
2024/01/23 05:39:29;;;;;;;10.18;3.13;;;6.20;99.90;;;;;;5091070;28;20169;-56
2024/01/23 05:41:55;;;;;;;17.70;3.10;;;6.20;99.90;;;;;;5091289;28;20629;-58
2024/01/23 05:44:21;;;;;;;17.27;3.40;;;6.20;99.90;;;;;;5090805;28;20250;-58
2024/01/23 05:46:47;;;;;;;9.63;2.63;;;6.20;99.90;;;;;;5090942;28;20161;-56
2024/01/23 05:49:14;;;;;;;19.23;3.45;;;6.20;99.90;;;;;;5091612;28;20230;-53
2024/01/23 05:51:40;;;;;;;12.77;3.00;;;6.50;99.90;;;;;;5091675;28;20622;-55
2024/01/23 05:54:05;;;;;;;14.60;3.38;;;6.20;99.90;;;;;;5090817;28;20162;-54
2024/01/23 05:56:31;;;;;;;11.85;3.17;;;6.10;99.90;;;;;;5090738;28;20217;-57
2024/01/23 05:58:57;;;;;;;13.68;2.85;;;6.10;99.90;;;;;;5090826;28;20236;-57
2024/01/23 06:01:22;;;;;;;20.20;3.67;;;6.10;99.90;;;;;;5090793;28;20177;-57
2024/01/23 06:03:48;;;;;;;12.57;3.28;;;6.10;99.90;;;;;;5090698;28;20197;-57
2024/01/23 06:06:14;;;;;;;11.85;2.80;;;6.20;99.90;;;;;;5090688;28;20169;-57
2024/01/23 06:08:40;;;;;;;12.07;2.95;;;6.20;99.90;;;;;;5093524;28;20177;-57
2024/01/23 06:11:06;;;;;;;17.10;2.92;;;6.20;99.90;;;;;;5094476;28;20169;-57
2024/01/23 06:13:31;;;;;;;10.20;3.15;;;6.20;99.90;;;;;;5094828;28;20174;-57
2024/01/23 06:15:57;;;;;;;11.95;2.97;;;6.20;99.90;;;;;;5094391;28;20643;-58
2024/01/23 06:18:22;;;;;;;9.50;2.72;;;6.20;99.90;;;;;;5094384;28;20173;-53
2024/01/23 06:20:48;;;;;;;11.00;2.80;;;6.20;99.90;;;;;;5094337;28;20161;-58
2024/01/23 06:23:13;;;;;;;18.95;3.78;;;6.20;99.90;;;;;;5094185;28;20243;-57
2024/01/23 06:25:39;;;;;;;14.07;2.35;;;6.20;99.90;;;;;;5094691;28;20170;-57
2024/01/23 06:28:05;;;;;;;20.35;3.72;;;6.20;99.90;;;;;;5094173;28;20161;-57
2024/01/23 06:30:30;;;;;;;16.02;3.20;;;6.20;99.90;;;;;;5094043;28;20166;-56
2024/01/23 06:32:56;;;;;;;12.40;2.75;;;6.10;99.90;;;;;;5094385;28;20173;-57
2024/01/23 06:35:22;;;;;;;10.93;2.40;;;6.10;99.90;;;;;;5094117;28;20644;-57
2024/01/23 06:37:47;;;;;;;17.60;3.10;;;6.10;99.90;;;;;;5093809;28;20166;-57
2024/01/23 06:40:13;;;;;;;16.95;2.75;;;6.10;99.90;;;;;;5094000;28;20697;-56
2024/01/23 06:42:39;;;;;;;22.45;3.47;;;6.10;99.90;;;;;;5094598;28;20201;-56
2024/01/23 06:45:05;;;;;;;14.20;3.60;;;6.10;99.90;;;;;;5093823;28;20211;-56
2024/01/23 06:47:30;;;;;;;13.88;2.45;;;6.10;99.90;;;;;;5093718;28;20207;-57
2024/01/23 06:49:56;;;;;;;17.27;4.10;;;6.10;99.90;;;;;;5093762;28;20239;-56
2024/01/23 06:52:21;;;;;;;16.02;3.30;;;6.10;99.90;;;;;;5094047;28;20169;-57
2024/01/23 06:54:47;;;;;;;11.82;2.50;;;6.00;99.90;;;;;;5093736;28;20164;-56
2024/01/23 06:57:13;;;;;;;25.80;4.35;;;6.00;99.90;;;;;;5093540;28;20746;-55
2024/01/23 06:59:38;;;;;;;19.92;2.80;;;6.00;99.90;;;;;;5094030;28;20685;-57
2024/01/23 07:02:06;;;;;;;12.50;2.72;;;6.00;99.90;;;;;;5092374;28;20161;-57
2024/01/23 07:04:32;;;;;;;17.92;3.25;;;6.00;99.90;;;;;;5093379;28;20209;-58
2024/01/23 07:06:58;;;;;;;11.15;2.85;;;6.00;99.90;;;;;;5093396;28;20172;-57
2024/01/23 07:09:23;;;;;;;15.27;3.10;;;6.00;99.90;;;;;;5093407;28;20182;-57
2024/01/23 07:11:50;;;;;;;21.10;3.03;;;6.00;99.90;;;;;;5093195;28;20165;-57
2024/01/23 07:14:16;;;;;;;16.33;2.45;;;6.00;99.90;;;;;;5093489;28;20222;-57
2024/01/23 07:16:41;;;;;;;21.33;3.28;;;6.00;99.90;;;;;;5093879;28;20199;-53
2024/01/23 07:19:07;;;;;;;17.30;3.50;;;6.00;99.90;;;;;;5092913;28;20632;-52
2024/01/23 07:21:32;;;;;;;16.70;3.30;;;5.90;99.90;;;;;;5093146;28;20536;-54
2024/01/23 07:23:58;;;;;;;26.10;3.53;;;5.90;99.90;;;;;;5093049;28;20660;-52
2024/01/23 07:26:24;;;;;;;13.45;3.50;;;5.90;99.90;;;;;;5093094;28;20162;-52
2024/01/23 07:28:50;;;;;;;10.32;3.20;;;5.90;99.90;;;;;;5092993;28;20609;-51
2024/01/23 07:31:15;;;;;;;12.90;3.10;;;5.90;99.90;;;;;;5092957;28;20165;-52
2024/01/23 07:33:41;;;;;;;13.20;2.80;;;5.90;99.90;;;;;;5093425;28;20250;-51
2024/01/23 07:36:06;;;;;;;12.93;3.10;;;5.90;99.90;;;;;;5092942;28;20165;-52
2024/01/23 07:38:32;;;;;;;16.38;4.32;;;5.90;99.90;;;;;;5092749;28;20176;-51
2024/01/23 07:40:58;;;;;;;15.13;2.78;;;5.90;99.90;;;;;;5092901;28;20173;-51
2024/01/23 07:43:25;;;;;;;17.75;3.05;;;5.90;99.90;;;;;;5092684;28;20201;-51
2024/01/23 07:45:51;;;;;;;26.73;5.55;;;6.00;99.90;;;;;;5092860;28;20528;-51
2024/01/23 07:48:16;;;;;;;9.88;2.58;;;6.00;99.90;;;;;;5092642;28;20165;-52
2024/01/23 07:50:42;;;;;;;17.08;3.22;;;6.00;99.90;;;;;;5093151;28;20165;-50
2024/01/23 07:53:08;;;;;;;12.48;2.78;;;6.00;99.90;;;;;;5093011;28;20172;-52
2024/01/23 07:55:33;;;;;;;11.70;3.28;;;6.00;99.90;;;;;;5092274;28;20244;-49
2024/01/23 07:57:59;;;;;;;14.90;3.42;;;6.00;99.90;;;;;;5092337;28;20181;-55
2024/01/23 08:00:24;;;;;;;18.73;3.47;;;6.00;99.90;;;;;;5092351;28;20170;-51
2024/01/23 08:02:50;;;;;;;18.98;3.70;;;6.00;99.90;;;;;;5092321;28;20189;-50
2024/01/23 08:05:15;;;;;;;15.05;3.28;;;6.00;99.90;;;;;;5092335;28;20226;-53
2024/01/23 08:07:41;;;;;;;21.88;3.72;;;6.00;99.90;;;;;;5092745;28;20575;-54
2024/01/23 08:10:09;;;;;;;13.75;3.33;;;6.00;99.90;;;;;;5092725;28;20268;-50
2024/01/23 08:12:34;;;;;;;18.58;3.70;;;6.00;99.90;;;;;;5092393;28;20181;-53
2024/01/23 08:15:00;;;;;;;16.02;3.13;;;6.00;99.90;;;;;;5092120;28;20218;-52
2024/01/23 08:17:26;;;;;;;19.73;3.83;;;6.00;99.90;;;;;;5091982;28;20169;-52
2024/01/23 08:19:52;;;;;;;12.10;3.05;;;6.10;99.90;;;;;;5090784;28;20168;-52
2024/01/23 08:22:17;;;;;;;16.50;3.22;;;6.10;99.90;;;;;;5092156;28;20169;-51
2024/01/23 08:24:43;;;;;;;21.08;3.65;;;6.20;99.90;;;;;;5091947;28;20173;-52
2024/01/23 08:27:09;;;;;;;25.13;4.32;;;6.20;99.90;;;;;;5092494;28;20172;-52
2024/01/23 08:29:34;;;;;;;13.25;2.85;;;6.30;99.90;;;;;;5091829;28;20541;-51
2024/01/23 08:32:00;;;;;;;17.13;5.72;;;6.30;99.90;;;;;;5091423;28;20169;-50
2024/01/23 08:34:26;;;;;;;19.98;3.45;;;6.30;99.90;;;;;;5091756;28;20624;-50
2024/01/23 08:36:51;;;;;;;18.83;3.80;;;6.40;99.90;;;;;;5091808;28;20271;-52
2024/01/23 08:39:18;;;;;;;22.92;3.88;;;6.40;99.90;;;;;;5091724;28;20161;-52
2024/01/23 08:41:43;;;;;;;22.05;4.10;;;6.40;99.90;;;;;;5091732;28;20161;-58
2024/01/23 08:44:09;;;;;;;9.35;3.55;;;6.40;99.90;;;;;;5092282;28;20678;-57
2024/01/23 08:46:34;;;;;;;15.77;3.42;;;6.50;99.90;;;;;;5091898;28;20244;-58
2024/01/23 08:49:00;;;;;;;16.27;3.25;;;6.50;99.90;;;;;;5091464;28;20189;-58
2024/01/23 08:51:28;;;;;;;21.27;3.97;;;6.60;99.90;;;;;;5091530;28;20504;-55
2024/01/23 08:53:54;;;;;;;21.25;3.58;;;6.60;99.90;;;;;;5091493;28;20168;-56
2024/01/23 08:56:21;;;;;;;13.70;3.22;;;6.60;99.90;;;;;;5090006;28;20588;-56
2024/01/23 08:58:47;;;;;;;16.58;4.03;;;6.60;99.90;;;;;;5090176;28;20169;-51
2024/01/23 09:01:12;;;;;;;17.58;4.10;;;6.60;99.90;;;;;;5091617;28;20198;-51
2024/01/23 09:03:39;;;;;;;18.67;3.33;;;6.60;99.90;;;;;;5091821;28;20575;-50
2024/01/23 09:06:05;;;;;;;19.52;2.88;;;6.60;99.90;;;;;;5091379;28;20222;-50
2024/01/23 09:08:30;;;;;;;19.23;3.95;;;6.60;99.90;;;;;;5091291;28;20694;-53
2024/01/23 09:10:57;;;;;;;20.65;4.72;;;6.60;99.90;;;;;;5090063;28;20254;-50
2024/01/23 09:13:22;;;;;;;18.83;3.53;;;6.70;99.90;;;;;;5091497;28;20263;-57
2024/01/23 09:15:48;;;;;;;12.35;4.03;;;6.70;99.90;;;;;;5091174;28;20212;-54
2024/01/23 09:18:14;;;;;;;18.58;3.90;;;6.70;99.90;;;;;;5091166;28;20170;-57
2024/01/23 09:20:39;;;;;;;23.58;4.40;;;6.70;99.90;;;;;;5091784;28;20181;-54
2024/01/23 09:23:05;;;;;;;25.00;4.15;;;6.70;99.90;;;;;;5091353;28;20208;-53
2024/01/23 09:25:31;;;;;;;18.73;4.45;;;6.70;99.90;;;;;;5091377;28;20167;-57
2024/01/23 09:27:57;;;;;;;24.80;4.63;;;6.80;99.90;;;;;;5091034;28;20161;-57
2024/01/23 09:30:23;;;;;;;18.80;4.22;;;6.80;99.90;;;;;;5091154;28;20165;-50
2024/01/23 09:32:48;;;;;;;15.55;4.03;;;6.80;99.90;;;;;;5091090;28;20223;-52
2024/01/23 09:35:14;;;;;;;12.77;3.55;;;6.80;99.90;;;;;;5090993;28;20222;-49
2024/01/23 09:37:39;;;;;;;26.90;4.45;;;6.90;99.90;;;;;;5091811;28;20165;-50
2024/01/23 09:40:08;;;;;;;18.23;3.70;;;6.90;99.90;;;;;;5091002;28;20213;-52
2024/01/23 09:42:37;;;;;;;24.75;4.43;;;6.90;99.90;;;;;;5093103;28;20652;-50
2024/01/23 09:45:09;;;;;;;14.50;3.92;;;6.90;99.90;;;;;;5095306;28;20185;-50
2024/01/23 09:47:35;;;;;;;21.92;3.85;;;6.90;99.90;;;;;;5095294;28;20198;-50
2024/01/23 09:50:02;;;;;;;15.77;3.50;;;7.00;99.90;;;;;;5093704;28;20161;-51
2024/01/23 09:52:29;;;;;;;12.00;3.25;;;7.00;99.90;;;;;;5095137;28;20169;-57
2024/01/23 09:54:55;;;;;;;19.77;4.03;;;7.00;99.90;;;;;;5094853;28;20264;-51
2024/01/23 09:57:21;;;;;;;16.13;3.22;;;7.00;99.90;;;;;;5094647;28;20300;-58
2024/01/23 09:59:48;;;;;;;17.83;4.22;;;7.10;99.90;;;;;;5094714;28;20169;-55
2024/01/23 10:02:14;;;;;;;18.20;4.20;;;7.10;99.90;;;;;;5094811;28;20162;-58
2024/01/23 10:04:41;;;;;;;20.42;4.80;;;7.20;99.90;;;;;;5094958;28;20288;-56
2024/01/23 10:07:08;;;;;;;12.80;4.38;;;7.20;99.90;;;;;;5094844;28;20170;-58
2024/01/23 10:09:33;;;;;;;18.08;3.58;;;7.30;99.90;;;;;;5094507;28;20248;-58
2024/01/23 10:11:59;;;;;;;10.95;3.10;;;7.30;99.90;;;;;;5094795;28;20248;-58
2024/01/23 10:14:25;;;;;;;23.15;4.00;;;7.30;99.90;;;;;;5094517;28;20568;-55
2024/01/23 10:16:50;;;;;;;14.23;3.72;;;7.40;99.90;;;;;;5094410;28;20177;-56
2024/01/23 10:19:16;;;;;;;26.70;4.78;;;7.40;99.90;;;;;;5094396;28;20165;-56
2024/01/23 10:21:42;;;;;;;15.40;3.60;;;7.60;99.90;;;;;;5094265;28;20639;-55
2024/01/23 10:24:07;;;;;;;10.30;3.28;;;7.50;99.90;;;;;;5094882;28;20254;-54
2024/01/23 10:26:33;;;;;;;11.85;2.83;;;7.60;99.90;;;;;;5094588;28;20166;-57
2024/01/23 10:29:04;;;;;;;24.73;3.85;;;7.70;99.90;;;;;;5094180;28;20645;-56
2024/01/23 10:31:29;;;;;;;20.13;3.92;;;7.70;99.90;;;;;;5092915;28;20162;-54
2024/01/23 10:33:56;;;;;;;19.98;4.13;;;7.70;99.90;;;;;;5094158;28;20234;-60
2024/01/23 10:36:22;;;;;;;28.75;5.20;;;7.90;99.90;;;;;;5094103;28;20160;-58
2024/01/23 10:38:50;;;;;;;19.15;4.18;;;8.00;99.90;;;;;;5094074;28;20165;-58
2024/01/23 10:41:18;;;;;;;18.45;3.90;;;8.00;99.90;;;;;;5094143;28;20173;-57
2024/01/23 10:43:46;;;;;;;12.85;3.22;;;8.00;99.90;;;;;;5092750;28;20334;-58
2024/01/23 10:46:12;;;;;;;13.50;3.45;;;8.00;99.90;;;;;;5094269;28;20161;-58
2024/01/23 10:48:38;;;;;;;19.90;4.03;;;8.00;99.90;;;;;;5094562;28;20542;-52
2024/01/23 10:51:20;;;;;;;19.45;3.80;;;8.10;99.90;;;;;;5093786;28;20248;-58
2024/01/23 10:53:46;;;;;;;18.17;3.67;;;8.00;99.90;;;;;;5093202;28;20177;-58
2024/01/23 10:56:14;;;;;;;20.33;3.75;;;8.00;99.90;;;;;;5093979;28;20209;-58
2024/01/23 10:58:41;;;;;;;20.55;4.38;;;8.00;99.90;;;;;;5094253;28;20218;-58
2024/01/23 11:01:11;;;;;;;13.45;3.65;;;8.10;99.90;;;;;;5093961;28;20232;-53
2024/01/23 11:03:38;;;;;;;23.70;3.90;;;8.20;99.90;;;;;;5093408;28;20261;-52
2024/01/23 11:06:13;;;;;;;16.58;3.90;;;8.20;99.90;;;;;;5093479;28;20166;-57
2024/01/23 11:08:47;;;;;;;15.13;3.85;;;8.20;99.90;;;;;;5093816;28;20168;-53
2024/01/23 11:11:34;;;;;;;15.73;3.53;;;8.20;99.90;;;;;;5093432;28;20165;-51
2024/01/23 11:14:09;;;;;;;16.20;3.35;;;8.40;99.90;;;;;;5093369;28;20188;-51
2024/01/23 11:16:35;;;;;;;14.73;4.70;;;8.50;99.90;;;;;;5091951;28;20169;-51
2024/01/23 11:19:00;;;;;;;15.52;4.00;;;8.60;99.90;;;;;;5093191;28;20169;-58
2024/01/23 11:21:26;;;;;;;18.30;4.53;;;8.60;99.90;;;;;;5093195;28;20169;-58
2024/01/23 11:23:59;;;;;;;18.73;4.07;;;8.50;99.90;;;;;;5093271;28;20201;-59
2024/01/23 11:26:26;;;;;;;14.35;4.00;;;8.40;99.90;;;;;;5093449;28;20252;-57
2024/01/23 11:29:00;;;;;;;12.77;4.07;;;8.40;99.90;;;;;;5093042;28;20164;-58
2024/01/23 11:31:28;;;;;;;26.45;4.30;;;8.50;99.90;;;;;;5093233;28;20579;-58
2024/01/23 11:34:13;;;;;;;24.60;4.25;;;8.50;99.90;;;;;;5092975;28;20172;-58
2024/01/23 11:36:39;;;;;;;20.20;4.60;;;8.70;99.90;;;;;;5093114;28;20218;-52
2024/01/23 11:39:04;;;;;;;16.88;4.38;;;8.70;99.90;;;;;;5092802;28;20169;-58
2024/01/23 11:41:30;;;;;;;19.80;3.75;;;8.70;99.90;;;;;;5092769;28;20172;-59
2024/01/23 11:44:05;;;;;;;19.73;4.03;;;8.70;99.90;;;;;;5092637;28;20201;-57
2024/01/23 11:46:33;;;;;;;20.75;4.07;;;8.70;99.90;;;;;;5092893;28;20297;-58
2024/01/23 11:48:59;;;;;;;21.55;4.35;;;8.70;99.90;;;;;;5092672;28;20522;-59
2024/01/23 11:51:28;;;;;;;16.80;3.50;;;8.70;99.90;;;;;;5092619;28;20170;-60
2024/01/23 11:54:00;;;;;;;20.33;4.55;;;8.70;99.90;;;;;;5092573;28;20671;-52
2024/01/23 11:56:29;;;;;;;16.10;3.55;;;8.60;99.90;;;;;;5092334;28;20216;-53
2024/01/23 11:58:58;;;;;;;19.20;3.88;;;8.70;99.90;;;;;;5092575;28;20239;-55
2024/01/23 12:01:27;;;;;;;17.75;3.75;;;8.60;99.90;;;;;;5091177;28;20172;-56
2024/01/23 12:03:53;;;;;;;22.25;4.63;;;8.60;99.90;;;;;;5092451;28;20217;-54
2024/01/23 12:06:19;;;;;;;14.82;2.90;;;8.60;99.90;;;;;;5092301;28;20166;-58
2024/01/23 12:08:45;;;;;;;18.60;4.80;;;8.60;99.90;;;;;;5092225;28;20201;-51
2024/01/23 12:11:13;;;;;;;21.83;4.30;;;8.60;99.90;;;;;;5092975;28;20187;-55
2024/01/23 12:13:38;;;;;;;18.55;4.15;;;8.60;99.90;;;;;;5092622;28;20212;-56
2024/01/23 12:16:11;;;;;;;19.33;3.72;;;8.60;99.90;;;;;;5092147;28;20185;-52
2024/01/23 12:18:36;;;;;;;24.58;4.63;;;8.60;99.90;;;;;;5092348;28;20173;-52
2024/01/23 12:21:04;;;;;;;21.70;4.60;;;8.60;99.90;;;;;;5091984;28;20703;-56
2024/01/23 12:23:30;;;;;;;21.52;4.10;;;8.60;99.90;;;;;;5092159;28;20244;-56
2024/01/23 12:25:57;;;;;;;17.70;3.42;;;8.70;99.90;;;;;;5092053;28;20165;-56
2024/01/23 12:28:23;;;;;;;23.88;4.63;;;8.70;99.90;;;;;;5091959;28;20211;-56
2024/01/23 12:30:49;;;;;;;18.23;5.00;;;8.70;99.90;;;;;;5091989;28;20610;-52
2024/01/23 12:33:18;;;;;;;31.92;4.82;;;8.70;99.90;;;;;;5092618;28;20192;-58
2024/01/23 12:35:46;;;;;;;20.58;4.03;;;8.70;99.90;;;;;;5091917;28;20664;-58
2024/01/23 12:38:19;;;;;;;15.88;4.05;;;8.80;99.90;;;;;;5091809;28;20222;-56
2024/01/23 12:40:46;;;;;;;21.40;4.93;;;8.70;99.90;;;;;;5091742;28;20260;-58
2024/01/23 12:43:13;;;;;;;29.92;5.45;;;8.70;99.90;;;;;;5092121;28;20781;-57